Index of /vcmi/ppa/ubuntu/dists

[ICO]NameLast modifiedSizeDescription

[PARENTDIR]Parent Directory  -  
[DIR]artful/2022-12-30 14:42 -  
[DIR]bionic/2022-12-30 14:42 -  
[DIR]devel/2024-07-12 11:36 -  
[DIR]disco/2022-12-30 14:42 -  
[DIR]focal/2024-07-12 11:36 -  
[DIR]groovy/2022-12-30 14:42 -  
[DIR]hirsute/2022-12-30 14:42 -  
[DIR]impish/2022-12-30 14:42 -  
[DIR]jammy/2024-07-12 11:36 -  
[DIR]kinetic/2024-03-29 16:05 -  
[DIR]lunar/2024-01-24 22:45 -  
[DIR]mantic/2024-07-12 11:36 -  
[DIR]noble/2024-07-12 11:36 -  
[DIR]oneiric/2022-12-30 14:42 -  
[DIR]oracular/2024-07-12 11:36 -  
[DIR]precise/2022-12-30 14:42 -  
[DIR]quantal/2022-12-30 14:42 -  
[DIR]raring/2022-12-30 14:42 -  
[DIR]saucy/2022-12-30 14:42 -  
[DIR]trusty/2022-12-30 14:42 -  
[DIR]utopic/2022-12-30 14:42 -  
[DIR]vivid/2022-12-30 14:42 -  
[DIR]wily/2022-12-30 14:42 -  
[DIR]xenial/2022-12-30 14:42 -  
[DIR]yakkety/2022-12-30 14:42 -  
[DIR]zesty/2022-12-30 14:42 -